createdAt,value
2023-07-14T00:03:02.041Z,16.55
2023-07-14T00:06:04.140Z,16.57
2023-07-14T00:09:25.032Z,16.63
2023-07-14T00:12:26.950Z,16.68
2023-07-14T00:15:29.340Z,16.68
2023-07-14T00:18:32.006Z,16.67
2023-07-14T00:21:33.997Z,16.67
2023-07-14T00:24:35.961Z,16.71
2023-07-14T00:27:38.195Z,16.70
2023-07-14T00:30:40.778Z,16.66
2023-07-14T00:33:51.086Z,16.58
2023-07-14T00:36:53.583Z,16.60
2023-07-14T00:39:55.478Z,16.63
2023-07-14T00:42:59.459Z,16.62
2023-07-14T00:46:03.233Z,16.56
2023-07-14T00:49:13.185Z,16.54
2023-07-14T00:52:25.293Z,16.51
2023-07-14T00:55:53.177Z,16.50
2023-07-14T00:58:55.195Z,16.47
2023-07-14T01:02:26.509Z,16.43
2023-07-14T01:05:29.587Z,16.45
2023-07-14T01:08:33.021Z,16.44
2023-07-14T01:11:49.158Z,16.40
2023-07-14T01:14:53.417Z,16.40
2023-07-14T01:17:55.849Z,16.39
2023-07-14T01:20:57.845Z,16.31
2023-07-14T01:24:15.387Z,16.34
2023-07-14T01:30:38.379Z,16.49
2023-07-14T01:33:40.325Z,16.47
2023-07-14T01:36:44.020Z,16.49
2023-07-14T01:39:47.608Z,16.54
2023-07-14T01:43:02.218Z,16.48
2023-07-14T01:46:08.913Z,16.48
2023-07-14T01:49:29.185Z,16.49
2023-07-14T01:52:32.945Z,16.39
2023-07-14T01:55:37.803Z,16.35
2023-07-14T01:59:05.715Z,16.41
2023-07-14T02:02:14.380Z,16.43
2023-07-14T02:05:28.162Z,16.30
2023-07-14T02:08:30.540Z,16.33
2023-07-14T02:11:32.659Z,16.34
2023-07-14T02:14:51.771Z,16.41
2023-07-14T02:17:56.158Z,16.36
2023-07-14T02:20:59.450Z,16.34
2023-07-14T02:24:02.151Z,16.32
2023-07-14T02:27:05.346Z,16.33
2023-07-14T02:30:14.938Z,16.15
2023-07-14T02:33:25.582Z,16.04
2023-07-14T02:36:45.393Z,15.96
2023-07-14T02:39:49.945Z,15.96
2023-07-14T02:42:52.940Z,15.92
2023-07-14T02:46:01.856Z,15.88
2023-07-14T02:49:03.874Z,15.93
2023-07-14T02:52:07.217Z,15.89
2023-07-14T02:55:09.735Z,15.93
2023-07-14T02:58:11.706Z,15.89
2023-07-14T03:01:13.936Z,15.96
2023-07-14T03:04:16.010Z,15.93
2023-07-14T03:07:18.444Z,15.94
2023-07-14T03:10:20.591Z,15.89
2023-07-14T03:13:23.175Z,15.87
2023-07-14T03:16:27.206Z,15.82
2023-07-14T03:19:29.270Z,15.83
2023-07-14T03:22:32.329Z,15.81
2023-07-14T03:25:34.965Z,15.84
2023-07-14T03:28:37.965Z,15.85
2023-07-14T03:31:39.989Z,15.87
2023-07-14T03:34:42.436Z,15.81
2023-07-14T03:37:44.418Z,15.79
2023-07-14T03:40:46.692Z,15.83
2023-07-14T03:43:48.640Z,15.85
2023-07-14T03:46:50.901Z,15.81
2023-07-14T03:49:52.827Z,15.79
2023-07-14T03:52:54.721Z,15.81
2023-07-14T03:55:56.845Z,15.79
2023-07-14T03:58:58.857Z,15.78
2023-07-14T04:02:00.870Z,15.88
2023-07-14T04:05:02.864Z,15.81
2023-07-14T04:08:05.354Z,15.80
2023-07-14T04:11:07.401Z,15.87
2023-07-14T04:14:12.169Z,15.78
2023-07-14T04:17:14.110Z,15.77
2023-07-14T04:20:16.071Z,15.81
2023-07-14T04:23:19.467Z,15.83
2023-07-14T04:26:22.528Z,15.88
2023-07-14T04:29:24.895Z,15.90
2023-07-14T04:32:27.842Z,15.93
2023-07-14T04:35:29.875Z,15.86
2023-07-14T04:38:31.982Z,15.86
2023-07-14T04:41:35.865Z,15.84
2023-07-14T04:44:38.737Z,15.89
2023-07-14T04:47:40.708Z,16.03
2023-07-14T04:50:45.289Z,16.10
2023-07-14T04:53:47.245Z,16.23
2023-07-14T04:56:49.146Z,16.16
2023-07-14T04:59:51.127Z,16.28
2023-07-14T05:02:53.312Z,16.33
2023-07-14T05:05:55.637Z,16.28
2023-07-14T05:08:57.662Z,16.25
2023-07-14T05:11:59.680Z,16.28
2023-07-14T05:15:11.834Z,16.45
2023-07-14T05:18:13.959Z,16.40
2023-07-14T05:21:16.139Z,16.60
2023-07-14T05:24:18.149Z,16.72
2023-07-14T05:27:21.297Z,16.72
2023-07-14T05:30:23.654Z,16.81
2023-07-14T05:33:25.629Z,16.92
2023-07-14T05:36:27.562Z,17.00
2023-07-14T05:39:29.690Z,17.09
2023-07-14T05:42:31.634Z,17.20
2023-07-14T05:45:34.167Z,17.36
2023-07-14T05:48:36.465Z,17.48
2023-07-14T05:51:38.449Z,17.55
2023-07-14T05:54:40.914Z,17.72
2023-07-14T05:57:45.154Z,17.83
2023-07-14T06:00:47.257Z,17.96
2023-07-14T06:03:49.404Z,18.11
2023-07-14T06:06:51.499Z,18.23
2023-07-14T06:09:53.430Z,18.33
2023-07-14T06:12:55.367Z,18.44
2023-07-14T06:15:57.897Z,18.60
2023-07-14T06:19:00.028Z,18.80
2023-07-14T06:22:01.925Z,19.04
2023-07-14T06:25:05.203Z,19.59
2023-07-14T06:28:08.452Z,20.09
2023-07-14T06:31:12.977Z,20.68
2023-07-14T06:34:15.157Z,20.89
2023-07-14T06:37:17.380Z,21.58
2023-07-14T06:40:21.831Z,22.18
2023-07-14T06:43:24.018Z,22.55
2023-07-14T06:46:26.091Z,23.01
2023-07-14T06:49:29.244Z,23.00
2023-07-14T06:52:31.903Z,23.15
2023-07-14T06:55:34.919Z,23.49
2023-07-14T06:58:37.342Z,24.02
2023-07-14T07:01:39.326Z,23.91
2023-07-14T07:04:41.517Z,24.21
2023-07-14T07:07:43.671Z,24.52
2023-07-14T07:10:46.803Z,24.44
2023-07-14T07:13:48.785Z,25.27
2023-07-14T07:16:50.874Z,25.00
2023-07-14T07:19:52.861Z,24.80
2023-07-14T07:22:54.819Z,25.12
2023-07-14T07:25:57.085Z,25.27
2023-07-14T07:28:59.312Z,25.85
2023-07-14T07:32:01.379Z,25.92
2023-07-14T07:35:04.404Z,26.16
2023-07-14T07:38:06.600Z,26.58
2023-07-14T07:41:08.597Z,27.02
2023-07-14T07:44:10.727Z,27.12
2023-07-14T07:47:13.972Z,27.47
2023-07-14T07:50:16.207Z,28.02
2023-07-14T07:53:18.192Z,27.97
2023-07-14T07:56:20.217Z,28.38
2023-07-14T07:59:22.210Z,28.61
2023-07-14T08:02:24.350Z,28.33
2023-07-14T08:05:26.691Z,29.17
2023-07-14T08:08:29.081Z,28.96
2023-07-14T08:11:31.555Z,28.79
2023-07-14T08:14:50.513Z,29.11
2023-07-14T08:17:56.548Z,29.13
2023-07-14T08:21:00.159Z,29.74
2023-07-14T08:24:02.256Z,29.83
2023-07-14T08:27:04.437Z,29.11
2023-07-14T08:30:09.341Z,29.27
2023-07-14T08:33:11.295Z,29.91
2023-07-14T08:36:14.623Z,30.12
2023-07-14T08:39:17.713Z,29.06
2023-07-14T08:42:31.795Z,29.54
2023-07-14T08:45:38.908Z,29.96
2023-07-14T08:48:47.304Z,29.85
2023-07-14T08:51:53.870Z,30.06
2023-07-14T08:54:55.774Z,30.90
2023-07-14T08:58:10.467Z,29.91
2023-07-14T09:01:20.337Z,29.95
2023-07-14T09:04:26.840Z,30.15
2023-07-14T09:07:30.020Z,30.40
2023-07-14T09:10:58.823Z,30.68
2023-07-14T09:14:29.630Z,31.11
2023-07-14T09:17:37.673Z,30.29
2023-07-14T09:20:39.597Z,31.18
2023-07-14T09:23:57.846Z,30.33
2023-07-14T09:27:00.063Z,30.61
2023-07-14T09:30:03.201Z,30.51
2023-07-14T09:33:10.222Z,31.02
2023-07-14T09:36:12.686Z,31.59
2023-07-14T09:39:22.993Z,31.67
2023-07-14T09:42:31.651Z,31.53
2023-07-14T09:45:36.143Z,31.99
2023-07-14T09:48:44.779Z,33.11
2023-07-14T09:52:11.554Z,32.96
2023-07-14T09:55:15.122Z,32.84
2023-07-14T09:58:18.284Z,32.67
2023-07-14T10:01:20.375Z,33.07
2023-07-14T10:04:28.119Z,34.08
2023-07-14T10:07:41.920Z,33.84
2023-07-14T10:10:45.357Z,34.34
2023-07-14T10:13:58.802Z,33.82
2023-07-14T10:17:00.927Z,35.29
2023-07-14T10:20:06.159Z,33.70
2023-07-14T10:23:17.566Z,33.62
2023-07-14T10:26:19.605Z,33.09
2023-07-14T10:29:25.187Z,33.48
2023-07-14T10:32:42.313Z,33.94
2023-07-14T10:35:45.048Z,34.25
2023-07-14T10:39:02.913Z,33.34
2023-07-14T10:42:16.271Z,33.16
2023-07-14T10:45:18.486Z,33.43
2023-07-14T10:48:43.017Z,33.56
2023-07-14T10:51:53.579Z,34.24
2023-07-14T10:55:04.826Z,34.54
2023-07-14T10:58:20.174Z,34.05
2023-07-14T11:01:32.659Z,33.35
2023-07-14T11:04:44.241Z,33.28
2023-07-14T11:07:46.458Z,32.66
2023-07-14T11:10:52.224Z,32.41
2023-07-14T11:14:22.093Z,33.82
2023-07-14T11:17:46.033Z,34.74
2023-07-14T11:20:53.786Z,33.83
2023-07-14T11:24:01.467Z,34.68
2023-07-14T11:27:29.515Z,34.37
2023-07-14T11:30:37.218Z,32.59
2023-07-14T11:33:50.824Z,32.54
2023-07-14T11:36:59.993Z,32.71
2023-07-14T11:40:08.154Z,33.05
2023-07-14T11:43:19.533Z,33.43
2023-07-14T11:46:23.690Z,32.78
2023-07-14T11:49:46.151Z,33.33
2023-07-14T11:53:12.906Z,33.64
2023-07-14T11:56:27.371Z,34.06
2023-07-14T11:59:31.639Z,33.49
2023-07-14T12:02:36.603Z,33.99
2023-07-14T12:05:41.105Z,34.55
2023-07-14T12:08:43.488Z,34.62
2023-07-14T12:11:58.228Z,34.35
2023-07-14T12:15:00.285Z,35.00
2023-07-14T12:18:38.143Z,35.47
2023-07-14T12:21:59.133Z,34.93
2023-07-14T12:25:01.257Z,33.97
2023-07-14T12:28:04.920Z,35.04
2023-07-14T12:31:14.578Z,34.24
2023-07-14T12:34:24.768Z,34.13
2023-07-14T12:37:26.774Z,34.47
2023-07-14T12:40:33.112Z,33.84
2023-07-14T12:43:42.116Z,34.68
2023-07-14T12:46:44.225Z,36.04
2023-07-14T12:49:51.875Z,36.46
2023-07-14T12:52:54.196Z,36.19
2023-07-14T12:55:56.132Z,36.85
2023-07-14T12:59:02.655Z,36.96
2023-07-14T13:02:05.273Z,36.89
2023-07-14T13:05:14.977Z,36.68
2023-07-14T13:08:22.071Z,35.66
2023-07-14T13:11:29.349Z,35.78
2023-07-14T13:14:47.842Z,35.36
2023-07-14T13:17:51.317Z,36.41
2023-07-14T13:20:56.249Z,35.92
2023-07-14T13:24:07.561Z,35.05
2023-07-14T13:27:20.336Z,35.77
2023-07-14T13:30:32.824Z,36.16
2023-07-14T13:33:34.861Z,36.31
2023-07-14T13:36:37.033Z,34.25
2023-07-14T13:39:46.599Z,33.70
2023-07-14T13:42:51.543Z,34.57
2023-07-14T13:46:07.797Z,34.58
2023-07-14T13:49:09.740Z,34.69
2023-07-14T13:52:17.210Z,35.10
2023-07-14T13:55:23.357Z,35.12
2023-07-14T13:58:25.326Z,34.83
2023-07-14T14:01:29.350Z,35.32
2023-07-14T14:04:31.426Z,35.78
2023-07-14T14:07:33.459Z,35.97
2023-07-14T14:10:35.557Z,35.10
2023-07-14T14:13:37.640Z,34.91
2023-07-14T14:16:39.832Z,35.09
2023-07-14T14:19:41.983Z,34.91
2023-07-14T14:22:45.307Z,34.57
2023-07-14T14:25:47.628Z,34.77
2023-07-14T14:28:49.565Z,34.53
2023-07-14T14:31:51.472Z,34.18
2023-07-14T14:34:58.948Z,34.71
2023-07-14T14:38:11.644Z,35.03
2023-07-14T14:41:22.361Z,34.51
2023-07-14T14:44:25.123Z,34.34
2023-07-14T14:47:27.174Z,33.37
2023-07-14T14:50:29.284Z,32.94
2023-07-14T14:53:35.582Z,33.05
2023-07-14T14:56:42.190Z,33.47
2023-07-14T14:59:46.597Z,33.95
2023-07-14T15:02:52.659Z,32.83
2023-07-14T15:05:54.854Z,32.84
2023-07-14T15:08:56.849Z,32.84
2023-07-14T15:11:59.048Z,32.34
2023-07-14T15:15:01.119Z,31.83
2023-07-14T15:18:03.751Z,31.79
2023-07-14T15:21:14.601Z,32.41
2023-07-14T15:24:16.686Z,31.87
2023-07-14T15:27:27.282Z,31.80
2023-07-14T15:30:31.952Z,31.13
2023-07-14T15:33:33.999Z,30.79
2023-07-14T15:36:35.995Z,31.09
2023-07-14T15:39:37.974Z,31.24
2023-07-14T15:42:39.973Z,31.49
2023-07-14T15:45:42.121Z,31.51
2023-07-14T15:48:47.409Z,31.32
2023-07-14T15:51:49.403Z,30.97
2023-07-14T15:54:51.499Z,30.51
2023-07-14T15:57:53.486Z,30.69
2023-07-14T16:00:58.072Z,30.47
2023-07-14T16:04:02.460Z,30.45
2023-07-14T16:07:05.233Z,29.84
2023-07-14T16:10:13.236Z,29.35
2023-07-14T16:13:18.614Z,29.44
2023-07-14T16:16:20.906Z,29.41
2023-07-14T16:19:22.979Z,29.68
2023-07-14T16:22:25.428Z,29.42
2023-07-14T16:25:30.009Z,29.26
2023-07-14T16:28:42.477Z,29.06
2023-07-14T16:31:44.396Z,29.00
2023-07-14T16:34:47.703Z,28.77
2023-07-14T16:37:52.385Z,28.91
2023-07-14T16:40:54.349Z,28.58
2023-07-14T16:43:57.583Z,28.69
2023-07-14T16:47:03.968Z,28.46
2023-07-14T16:50:11.155Z,28.44
2023-07-14T16:53:17.172Z,28.18
2023-07-14T16:56:19.186Z,28.24
2023-07-14T16:59:21.562Z,28.00
2023-07-14T17:02:26.202Z,27.85
2023-07-14T17:05:35.746Z,28.03
2023-07-14T17:08:43.188Z,28.09
2023-07-14T17:11:45.619Z,27.92
2023-07-14T17:14:47.850Z,27.97
2023-07-14T17:17:50.246Z,27.77
2023-07-14T17:20:53.632Z,27.79
2023-07-14T17:23:57.782Z,27.77
2023-07-14T17:27:00.867Z,27.73
2023-07-14T17:30:21.398Z,27.55
2023-07-14T17:33:29.634Z,27.51
2023-07-14T17:36:39.871Z,27.62
2023-07-14T17:39:47.625Z,27.46
2023-07-14T17:42:50.739Z,27.40
2023-07-14T17:45:52.780Z,27.35
2023-07-14T17:48:57.680Z,27.31
2023-07-14T17:52:00.314Z,27.26
2023-07-14T17:55:02.242Z,27.20
2023-07-14T17:58:11.695Z,27.09
2023-07-14T18:01:17.085Z,27.03
2023-07-14T18:04:22.072Z,27.02
2023-07-14T18:07:24.270Z,26.97
2023-07-14T18:10:28.949Z,26.92
2023-07-14T18:13:41.147Z,26.80
2023-07-14T18:16:43.262Z,26.76
2023-07-14T18:19:45.330Z,26.70
2023-07-14T18:22:49.118Z,26.62
2023-07-14T18:25:51.213Z,26.60
2023-07-14T18:28:53.256Z,26.47
2023-07-14T18:31:56.470Z,26.42
2023-07-14T18:35:01.305Z,26.30
2023-07-14T18:38:06.537Z,26.24
2023-07-14T18:41:17.944Z,26.12
2023-07-14T18:44:19.985Z,25.95
2023-07-14T18:47:22.014Z,25.58
2023-07-14T18:50:24.070Z,25.37
2023-07-14T18:53:27.744Z,25.15
2023-07-14T18:56:29.894Z,25.17
2023-07-14T18:59:31.960Z,25.02
2023-07-14T19:02:34.955Z,24.95
2023-07-14T19:05:37.044Z,24.91
2023-07-14T19:08:39.424Z,24.77
2023-07-14T19:11:43.145Z,24.51
2023-07-14T19:14:45.180Z,24.48
2023-07-14T19:17:49.281Z,24.40
2023-07-14T19:20:57.698Z,24.37
2023-07-14T19:24:00.826Z,24.32
2023-07-14T19:27:02.969Z,24.27
2023-07-14T19:30:13.396Z,24.18
2023-07-14T19:33:18.985Z,24.07
2023-07-14T19:36:21.716Z,23.94
2023-07-14T19:39:23.980Z,23.88
2023-07-14T19:42:26.932Z,23.80
2023-07-14T19:45:30.168Z,23.58
2023-07-14T19:48:32.203Z,23.52
2023-07-14T19:51:34.805Z,23.33
2023-07-14T19:54:36.859Z,23.38
2023-07-14T19:57:39.427Z,23.11
2023-07-14T20:00:44.929Z,23.05
2023-07-14T20:03:48.559Z,22.90
2023-07-14T20:06:50.749Z,22.93
2023-07-14T20:12:59.173Z,22.95
2023-07-14T20:16:01.359Z,22.95
2023-07-14T20:19:03.529Z,22.86
2023-07-14T20:22:14.656Z,22.87
2023-07-14T20:25:18.976Z,22.79
2023-07-14T20:28:24.560Z,22.80
2023-07-14T20:31:26.893Z,22.75
2023-07-14T20:34:28.935Z,22.66
2023-07-14T20:37:31.839Z,22.54
2023-07-14T20:40:33.886Z,22.44
2023-07-14T20:43:35.875Z,22.34
2023-07-14T20:46:41.544Z,22.21
2023-07-14T20:49:46.000Z,22.20
2023-07-14T20:52:49.363Z,21.88
2023-07-14T20:55:56.371Z,21.81
2023-07-14T20:58:58.941Z,21.88
2023-07-14T21:02:00.923Z,21.78
2023-07-14T21:05:03.167Z,21.71
2023-07-14T21:08:24.020Z,21.68
2023-07-14T21:11:28.265Z,21.66
2023-07-14T21:14:30.174Z,21.56
2023-07-14T21:17:32.155Z,21.49
2023-07-14T21:20:34.379Z,21.46
2023-07-14T21:23:37.141Z,21.34
2023-07-14T21:26:39.060Z,21.19
2023-07-14T21:29:41.536Z,21.17
2023-07-14T21:32:43.612Z,21.23
2023-07-14T21:35:46.647Z,21.22
2023-07-14T21:38:48.530Z,21.25
2023-07-14T21:41:51.974Z,21.23
2023-07-14T21:44:54.027Z,21.24
2023-07-14T21:47:56.160Z,21.14
2023-07-14T21:51:02.071Z,21.09
2023-07-14T21:54:04.705Z,21.08
2023-07-14T21:57:10.713Z,21.13
2023-07-14T22:00:18.852Z,21.07
2023-07-14T22:03:22.541Z,20.99
2023-07-14T22:06:26.253Z,21.00
2023-07-14T22:09:28.595Z,20.88
2023-07-14T22:12:30.599Z,20.83
2023-07-14T22:15:32.559Z,20.73
2023-07-14T22:18:45.751Z,20.72
2023-07-14T22:21:49.080Z,20.66
2023-07-14T22:24:51.166Z,20.65
2023-07-14T22:27:53.233Z,20.63
2023-07-14T22:30:56.349Z,20.55
2023-07-14T22:34:00.865Z,20.48
2023-07-14T22:37:02.795Z,20.38
2023-07-14T22:40:05.385Z,20.33
2023-07-14T22:43:13.086Z,20.27
2023-07-14T22:46:15.320Z,20.32
2023-07-14T22:49:17.597Z,20.27
2023-07-14T22:52:19.544Z,20.17
2023-07-14T22:55:22.488Z,20.07
2023-07-14T22:58:26.906Z,20.15
2023-07-14T23:01:32.536Z,20.10
2023-07-14T23:04:34.675Z,20.07
2023-07-14T23:07:36.671Z,19.98
2023-07-14T23:10:47.369Z,19.86
2023-07-14T23:13:49.908Z,19.87
2023-07-14T23:16:51.945Z,19.94
2023-07-14T23:19:53.848Z,19.95
2023-07-14T23:22:55.877Z,19.96
2023-07-14T23:25:57.879Z,19.95
2023-07-14T23:28:59.938Z,19.97
2023-07-14T23:32:02.232Z,19.90
2023-07-14T23:35:05.520Z,19.94
2023-07-14T23:38:08.605Z,19.97
2023-07-14T23:41:12.969Z,19.93
2023-07-14T23:44:19.679Z,19.93
2023-07-14T23:47:21.558Z,19.96
2023-07-14T23:50:25.852Z,19.99
2023-07-14T23:53:35.070Z,19.99
2023-07-14T23:56:38.088Z,20.00
2023-07-14T23:59:40.394Z,19.99
